TimeWET,TemperatureF,Dew PointF,Humidity,Sea Level PressureIn,VisibilityMPH,Wind Direction,Wind SpeedMPH,Gust SpeedMPH,PrecipitationIn,Events,Conditions,WindDirDegrees,DateUTC
12:00 AM,75.2,57.2,53,30.06,-9999.0,Calm,Calm,-,N/A,,Clear,0,2012-10-11 00:00:00
12:30 AM,73.4,57.2,57,30.06,-9999.0,Calm,Calm,-,N/A,,Clear,0,2012-10-11 00:30:00
1:00 AM,71.6,55.4,57,30.06,-9999.0,Calm,Calm,-,N/A,,Clear,0,2012-10-11 01:00:00
1:30 AM,69.8,55.4,60,30.06,-9999.0,Calm,Calm,-,N/A,,Clear,0,2012-10-11 01:30:00
2:00 AM,69.8,55.4,60,30.06,-9999.0,Calm,Calm,-,N/A,,Clear,0,2012-10-11 02:00:00
2:30 AM,69.8,55.4,60,30.06,-9999.0,Calm,Calm,-,N/A,,Clear,0,2012-10-11 02:30:00
3:00 AM,69,60,65,30.01,6,Calm,Calm,,,,,,2012-10-11 03:00:00
3:00 AM,68.0,57.2,68,30.06,6.2,Calm,Calm,-,N/A,,Unknown,0,2012-10-11 03:00:00
3:30 AM,71.6,60.8,69,30.04,6.2,Calm,Calm,-,N/A,,Unknown,0,2012-10-11 03:30:00
4:00 AM,68.0,59.0,73,30.04,6.2,Calm,Calm,-,N/A,,Unknown,0,2012-10-11 04:00:00
4:30 AM,68.0,57.2,68,30.04,6.2,Calm,Calm,-,N/A,,Unknown,0,2012-10-11 04:30:00
5:00 AM,69.8,59.0,68,30.06,6.2,Calm,Calm,-,N/A,,Unknown,0,2012-10-11 05:00:00
5:30 AM,66.2,55.4,68,30.06,-9999.0,Calm,Calm,-,N/A,,Clear,0,2012-10-11 05:30:00
6:00 AM,67,55,57,30.03,6,Calm,Calm,,,,,,2012-10-11 06:00:00
6:00 AM,66.2,55.4,68,30.06,-9999.0,Calm,Calm,-,N/A,,Clear,0,2012-10-11 06:00:00
6:30 AM,66.2,55.4,68,30.06,-9999.0,Calm,Calm,-,N/A,,Clear,0,2012-10-11 06:30:00
7:00 AM,68.0,57.2,68,30.06,-9999.0,Calm,Calm,-,N/A,,Clear,0,2012-10-11 07:00:00
7:30 AM,69.8,60.8,73,30.06,5.0,Calm,Calm,-,N/A,,Unknown,0,2012-10-11 07:30:00
8:00 AM,73.4,60.8,65,30.09,-9999.0,Calm,Calm,-,N/A,,Clear,0,2012-10-11 08:00:00
8:30 AM,75.2,62.6,65,30.09,5.0,Calm,Calm,-,N/A,,Unknown,0,2012-10-11 08:30:00
9:00 AM,78,64,53,30.02,4,Calm,Calm,,,,,,2012-10-11 09:00:00
9:00 AM,77.0,64.4,65,30.09,4.3,Calm,Calm,-,N/A,,Unknown,0,2012-10-11 09:00:00
9:30 AM,82.4,62.6,51,30.09,3.7,Calm,Calm,-,N/A,,Unknown,0,2012-10-11 09:30:00
10:00 AM,80.6,60.8,51,30.09,3.7,Calm,Calm,-,N/A,,Unknown,0,2012-10-11 10:00:00
10:30 AM,80.6,60.8,51,30.09,3.7,WNW,3.5,-,N/A,,Unknown,300,2012-10-11 10:30:00
2:00 PM,89.6,57.2,33,30.04,-9999.0,WNW,8.1,-,N/A,,Clear,290,2012-10-11 14:00:00
3:00 PM,90,56,21,29.91,6,West,10.4,,,,,280,2012-10-11 15:00:00
3:00 PM,89.6,57.2,33,30.04,-9999.0,West,10.4,-,N/A,,Clear,270,2012-10-11 15:00:00
4:00 PM,89.6,53.6,29,30.01,6.2,WNW,8.1,-,N/A,,Partly Cloudy,300,2012-10-11 16:00:00
4:30 PM,89.6,53.6,29,30.01,6.2,NW,9.2,-,N/A,,Partly Cloudy,310,2012-10-11 16:30:00
5:00 PM,89.6,51.8,27,30.01,6.2,NW,8.1,-,N/A,,Partly Cloudy,310,2012-10-11 17:00:00
5:30 PM,87.8,53.6,31,30.04,6.2,NNW,8.1,-,N/A,,Partly Cloudy,330,2012-10-11 17:30:00
6:00 PM,85,56,26,29.95,6,NNW,10.4,,,,Scattered Clouds,330,2012-10-11 18:00:00
6:00 PM,86.0,55.4,35,30.04,6.2,NNW,10.4,-,N/A,,Partly Cloudy,330,2012-10-11 18:00:00
6:30 PM,84.2,55.4,37,30.04,6.2,NNW,10.4,-,N/A,,Partly Cloudy,330,2012-10-11 18:30:00
7:00 PM,82.4,57.2,42,30.06,6.2,NNW,8.1,-,N/A,,Partly Cloudy,340,2012-10-11 19:00:00
7:30 PM,80.6,59.0,48,30.06,6.2,North,9.2,-,N/A,,Partly Cloudy,350,2012-10-11 19:30:00
8:00 PM,78.8,60.8,54,30.09,6.2,North,11.5,-,N/A,,Partly Cloudy,10,2012-10-11 20:00:00
8:30 PM,77.0,60.8,57,30.09,6.2,North,10.4,-,N/A,,Partly Cloudy,360,2012-10-11 20:30:00
9:00 PM,76,63,54,30.04,6,NNE,11.5,,,,Scattered Clouds,30,2012-10-11 21:00:00
9:00 PM,75.2,62.6,65,30.12,6.2,NNE,11.5,-,N/A,,Partly Cloudy,30,2012-10-11 21:00:00
9:30 PM,75.2,62.6,65,30.12,6.2,NNE,9.2,-,N/A,,Partly Cloudy,30,2012-10-11 21:30:00
10:00 PM,73.4,62.6,69,30.12,6.2,NE,8.1,-,N/A,,Partly Cloudy,40,2012-10-11 22:00:00
10:30 PM,73.4,62.6,69,30.12,6.2,NE,6.9,-,N/A,,Partly Cloudy,40,2012-10-11 22:30:00
11:00 PM,73.4,62.6,69,30.12,6.2,Variable,2.3,-,N/A,,Partly Cloudy,0,2012-10-11 23:00:00
11:30 PM,73.4,62.6,69,30.12,-9999.0,ENE,5.8,-,N/A,,Clear,60,2012-10-11 23:30:00